createdAt,value
2019-03-28T00:00:10.996Z,10.00
2019-03-28T00:02:38.957Z,9.90
2019-03-28T00:05:07.871Z,9.90
2019-03-28T00:07:36.110Z,9.90
2019-03-28T00:10:04.707Z,9.90
2019-03-28T00:12:32.808Z,9.90
2019-03-28T00:15:00.780Z,9.90
2019-03-28T00:17:28.728Z,9.90
2019-03-28T00:19:56.905Z,9.90
2019-03-28T00:22:34.660Z,9.90
2019-03-28T00:25:05.672Z,9.90
2019-03-28T00:27:33.740Z,9.90
2019-03-28T00:30:01.731Z,9.90
2019-03-28T00:32:29.724Z,9.80
2019-03-28T00:34:57.814Z,9.80
2019-03-28T00:37:25.991Z,9.80
2019-03-28T00:39:54.185Z,9.80
2019-03-28T00:42:22.264Z,9.80
2019-03-28T00:44:50.335Z,9.80
2019-03-28T00:47:18.339Z,9.80
2019-03-28T00:49:46.306Z,9.90
2019-03-28T00:52:14.284Z,9.80
2019-03-28T00:54:42.260Z,9.90
2019-03-28T00:57:10.226Z,9.90
2019-03-28T00:59:38.183Z,9.90
2019-03-28T01:02:06.387Z,9.80
2019-03-28T01:04:34.370Z,9.80
2019-03-28T01:07:02.371Z,9.80
2019-03-28T01:09:31.301Z,9.80
2019-03-28T01:11:59.457Z,9.80
2019-03-28T01:14:27.473Z,9.80
2019-03-28T01:16:55.281Z,9.80
2019-03-28T01:19:23.263Z,9.80
2019-03-28T01:21:51.247Z,9.80
2019-03-28T01:24:19.276Z,9.80
2019-03-28T01:26:56.587Z,9.70
2019-03-28T01:29:17.038Z,9.70
2019-03-28T01:31:45.003Z,9.70
2019-03-28T01:34:12.976Z,9.80
2019-03-28T01:36:40.849Z,9.80
2019-03-28T01:39:08.858Z,9.80
2019-03-28T01:41:36.708Z,9.80
2019-03-28T01:44:04.682Z,9.80
2019-03-28T01:46:32.674Z,9.70
2019-03-28T01:49:03.603Z,9.70
2019-03-28T01:51:31.168Z,9.70
2019-03-28T01:53:59.213Z,9.70
2019-03-28T01:56:27.168Z,9.70
2019-03-28T01:58:55.245Z,9.70
2019-03-28T02:01:23.529Z,9.70
2019-03-28T02:03:51.497Z,9.60
2019-03-28T02:06:19.628Z,9.70
2019-03-28T02:08:47.801Z,9.60
2019-03-28T02:11:15.768Z,9.70
2019-03-28T02:13:43.944Z,9.60
2019-03-28T02:16:11.937Z,9.60
2019-03-28T02:18:39.924Z,9.60
2019-03-28T02:21:09.637Z,9.60
2019-03-28T02:23:37.666Z,9.60
2019-03-28T02:26:05.744Z,9.60
2019-03-28T02:28:33.872Z,9.60
2019-03-28T02:31:01.882Z,9.60
2019-03-28T02:33:29.951Z,9.60
2019-03-28T02:35:58.046Z,9.60
2019-03-28T02:38:26.211Z,9.60
2019-03-28T02:40:54.473Z,9.60
2019-03-28T02:43:22.470Z,9.60
2019-03-28T02:45:50.461Z,9.60
2019-03-28T02:48:18.535Z,9.60
2019-03-28T02:50:46.512Z,9.60
2019-03-28T02:53:14.492Z,9.60
2019-03-28T02:55:42.585Z,9.60
2019-03-28T02:58:10.899Z,9.60
2019-03-28T03:00:39.121Z,9.60
2019-03-28T03:03:07.106Z,9.60
2019-03-28T03:05:35.089Z,9.60
2019-03-28T03:08:03.064Z,9.60
2019-03-28T03:10:31.262Z,9.60
2019-03-28T03:12:59.333Z,9.60
2019-03-28T03:15:27.323Z,9.70
2019-03-28T03:17:55.372Z,9.60
2019-03-28T03:20:23.583Z,9.70
2019-03-28T03:22:51.647Z,9.60
2019-03-28T03:25:19.807Z,9.70
2019-03-28T03:27:57.524Z,9.70
2019-03-28T03:30:18.132Z,9.60
2019-03-28T03:32:46.193Z,9.60
2019-03-28T03:35:14.382Z,9.60
2019-03-28T03:37:42.442Z,9.60
2019-03-28T03:40:11.524Z,9.50
2019-03-28T03:42:39.599Z,9.50
2019-03-28T03:45:09.017Z,9.50
2019-03-28T03:47:37.553Z,9.50
2019-03-28T03:50:07.073Z,9.50
2019-03-28T03:52:35.119Z,9.50
2019-03-28T03:55:03.459Z,9.40
2019-03-28T03:57:31.534Z,9.40
2019-03-28T03:59:59.594Z,9.40
2019-03-28T04:02:27.654Z,9.40
2019-03-28T04:04:56.860Z,9.40
2019-03-28T04:07:25.125Z,9.40
2019-03-28T04:09:53.117Z,9.40
2019-03-28T04:12:21.077Z,9.50
2019-03-28T04:14:49.052Z,9.50
2019-03-28T04:17:17.048Z,9.50
2019-03-28T04:19:45.108Z,9.50
2019-03-28T04:22:13.094Z,9.50
2019-03-28T04:24:40.998Z,9.50
2019-03-28T04:27:09.001Z,9.50
2019-03-28T04:29:36.943Z,9.40
2019-03-28T04:32:04.810Z,9.40
2019-03-28T04:34:32.787Z,9.40
2019-03-28T04:37:00.784Z,9.30
2019-03-28T04:39:28.758Z,9.40
2019-03-28T04:41:56.720Z,9.30
2019-03-28T04:44:24.735Z,9.30
2019-03-28T04:46:52.709Z,9.30
2019-03-28T04:49:20.689Z,9.30
2019-03-28T04:51:48.746Z,9.30
2019-03-28T04:54:16.687Z,9.30
2019-03-28T04:56:44.748Z,9.40
2019-03-28T04:59:12.752Z,9.40
2019-03-28T05:01:40.709Z,9.40
2019-03-28T05:04:08.715Z,9.40
2019-03-28T05:06:37.966Z,9.30
2019-03-28T05:09:06.167Z,9.30
2019-03-28T05:11:34.145Z,9.30
2019-03-28T05:14:02.121Z,9.30
2019-03-28T05:16:30.097Z,9.30
2019-03-28T05:18:58.185Z,9.30
2019-03-28T05:21:26.160Z,9.20
2019-03-28T05:23:54.236Z,9.20
2019-03-28T05:26:22.199Z,9.30
2019-03-28T05:28:57.354Z,9.20
2019-03-28T05:31:20.162Z,9.20
2019-03-28T05:33:48.228Z,9.20
2019-03-28T05:36:16.239Z,9.30
2019-03-28T05:38:44.185Z,9.20
2019-03-28T05:41:12.137Z,9.30
2019-03-28T05:43:40.513Z,9.30
2019-03-28T05:46:08.474Z,9.20
2019-03-28T05:48:36.448Z,9.20
2019-03-28T05:51:04.549Z,9.30
2019-03-28T05:53:32.617Z,9.30
2019-03-28T05:56:00.604Z,9.30
2019-03-28T05:58:28.596Z,9.20
2019-03-28T06:00:56.552Z,9.30
2019-03-28T06:03:24.528Z,9.20
2019-03-28T06:05:52.454Z,9.30
2019-03-28T06:08:20.381Z,9.30
2019-03-28T06:10:48.528Z,9.30
2019-03-28T06:13:16.508Z,9.30
2019-03-28T06:15:44.407Z,9.30
2019-03-28T06:18:12.373Z,9.30
2019-03-28T06:20:40.350Z,9.30
2019-03-28T06:23:08.334Z,9.30
2019-03-28T06:25:36.302Z,9.30
2019-03-28T06:28:04.305Z,9.30
2019-03-28T06:30:32.284Z,9.40
2019-03-28T06:33:00.256Z,9.40
2019-03-28T06:35:28.259Z,9.30
2019-03-28T06:37:56.218Z,9.30
2019-03-28T06:40:24.176Z,9.30
2019-03-28T06:42:52.145Z,9.40
2019-03-28T06:45:20.126Z,9.40
2019-03-28T06:47:48.125Z,9.40
2019-03-28T06:50:16.204Z,9.40
2019-03-28T06:52:44.187Z,9.50
2019-03-28T06:55:12.248Z,9.40
2019-03-28T06:57:40.229Z,9.50
2019-03-28T07:00:09.352Z,9.50
2019-03-28T07:02:37.360Z,9.50
2019-03-28T07:05:05.686Z,9.50
2019-03-28T07:07:33.658Z,9.50
2019-03-28T07:10:02.597Z,9.50
2019-03-28T07:12:30.937Z,9.60
2019-03-28T07:14:59.765Z,9.50
2019-03-28T07:17:27.796Z,9.60
2019-03-28T07:19:55.797Z,9.60
2019-03-28T07:22:23.756Z,9.60
2019-03-28T07:24:51.727Z,9.60
2019-03-28T07:27:19.769Z,9.70
2019-03-28T07:29:51.111Z,9.60
2019-03-28T07:32:17.697Z,9.70
2019-03-28T07:34:45.700Z,9.70
2019-03-28T07:37:13.760Z,9.70
2019-03-28T07:39:41.832Z,9.70
2019-03-28T07:42:09.832Z,9.70
2019-03-28T07:44:37.809Z,9.80
2019-03-28T07:47:05.800Z,9.80
2019-03-28T07:49:33.750Z,9.80
2019-03-28T07:52:01.738Z,9.80
2019-03-28T07:54:29.681Z,9.90
2019-03-28T07:56:57.644Z,9.90
2019-03-28T07:59:25.628Z,9.90
2019-03-28T08:01:53.596Z,10.00
2019-03-28T08:04:21.564Z,10.00
2019-03-28T08:06:50.520Z,10.00
2019-03-28T08:09:19.704Z,10.10
2019-03-28T08:11:48.410Z,10.10
2019-03-28T08:14:16.446Z,10.10
2019-03-28T08:16:44.374Z,10.10
2019-03-28T08:19:12.210Z,10.20
2019-03-28T08:21:40.077Z,10.20
2019-03-28T08:24:07.903Z,10.20
2019-03-28T08:26:35.872Z,10.20
2019-03-28T08:29:03.851Z,10.30
2019-03-28T08:31:32.107Z,10.30
2019-03-28T08:34:01.870Z,10.40
2019-03-28T08:36:29.857Z,10.40
2019-03-28T08:38:57.946Z,10.50
2019-03-28T08:41:25.906Z,10.50
2019-03-28T08:43:53.874Z,10.50
2019-03-28T08:46:21.761Z,10.60
2019-03-28T08:48:49.882Z,10.60
2019-03-28T08:51:17.971Z,10.60
2019-03-28T08:53:45.975Z,10.70
2019-03-28T08:56:13.941Z,10.80
2019-03-28T08:58:41.935Z,10.90
2019-03-28T09:01:09.909Z,10.90
2019-03-28T09:03:38.078Z,11.00
2019-03-28T09:06:06.183Z,11.00
2019-03-28T09:08:34.144Z,11.00
2019-03-28T09:11:02.280Z,11.10
2019-03-28T09:13:30.242Z,11.10
2019-03-28T09:15:58.220Z,11.10
2019-03-28T09:18:26.292Z,11.20
2019-03-28T09:20:54.268Z,11.30
2019-03-28T09:23:22.322Z,11.40
2019-03-28T09:25:50.333Z,11.40
2019-03-28T09:28:18.344Z,11.40
2019-03-28T09:30:49.138Z,11.50
2019-03-28T09:33:16.116Z,11.50
2019-03-28T09:35:44.153Z,11.60
2019-03-28T09:38:12.193Z,11.60
2019-03-28T09:40:40.766Z,11.70
2019-03-28T09:43:08.749Z,11.70
2019-03-28T09:45:37.332Z,11.70
2019-03-28T09:48:05.527Z,11.80
2019-03-28T09:50:34.007Z,11.80
2019-03-28T09:53:02.733Z,11.80
2019-03-28T09:55:30.709Z,11.90
2019-03-28T09:57:58.664Z,11.90
2019-03-28T10:00:26.688Z,11.90
2019-03-28T10:02:54.659Z,12.00
2019-03-28T10:05:22.699Z,12.00
2019-03-28T10:07:50.716Z,12.00
2019-03-28T10:10:18.793Z,12.10
2019-03-28T10:12:46.783Z,12.10
2019-03-28T10:15:15.072Z,12.20
2019-03-28T10:17:43.087Z,12.30
2019-03-28T10:20:11.865Z,12.30
2019-03-28T10:22:39.934Z,12.40
2019-03-28T10:25:08.164Z,12.40
2019-03-28T10:27:36.938Z,12.40
2019-03-28T10:30:05.703Z,12.50
2019-03-28T10:32:33.792Z,12.50
2019-03-28T10:35:02.290Z,12.60
2019-03-28T10:37:30.269Z,12.60
2019-03-28T10:39:58.274Z,12.60
2019-03-28T10:42:26.145Z,12.70
2019-03-28T10:44:54.126Z,12.70
2019-03-28T10:47:22.208Z,12.70
2019-03-28T10:49:50.208Z,12.70
2019-03-28T10:52:18.353Z,12.70
2019-03-28T10:54:46.341Z,12.70
2019-03-28T10:57:28.867Z,12.70
2019-03-28T10:59:44.181Z,12.70
2019-03-28T11:02:12.642Z,12.70
2019-03-28T11:04:40.688Z,12.80
2019-03-28T11:07:08.652Z,12.70
2019-03-28T11:09:36.647Z,12.70
2019-03-28T11:12:04.729Z,12.80
2019-03-28T11:14:32.634Z,12.80
2019-03-28T11:17:00.634Z,12.80
2019-03-28T11:19:28.481Z,12.80
2019-03-28T11:21:56.399Z,12.70
2019-03-28T11:24:24.396Z,12.80
2019-03-28T11:26:52.385Z,12.80
2019-03-28T11:29:20.345Z,12.80
2019-03-28T11:31:52.201Z,12.80
2019-03-28T11:34:18.260Z,12.80
2019-03-28T11:36:46.249Z,12.90
2019-03-28T11:39:14.257Z,12.80
2019-03-28T11:41:42.217Z,12.90
2019-03-28T11:44:10.222Z,12.90
2019-03-28T11:46:38.181Z,12.90
2019-03-28T11:49:06.554Z,12.90
2019-03-28T11:51:36.219Z,12.90
2019-03-28T11:54:04.486Z,13.00
2019-03-28T11:56:32.436Z,13.00
2019-03-28T11:59:00.425Z,13.10
2019-03-28T12:01:28.422Z,13.10
2019-03-28T12:03:56.381Z,13.20
2019-03-28T12:06:24.339Z,13.30
2019-03-28T12:08:52.337Z,13.30
2019-03-28T12:11:20.432Z,13.40
2019-03-28T12:13:48.404Z,13.50
2019-03-28T12:16:17.008Z,13.50
2019-03-28T12:18:45.127Z,13.60
2019-03-28T12:21:13.382Z,13.70
2019-03-28T12:23:41.351Z,13.90
2019-03-28T12:26:09.341Z,13.90
2019-03-28T12:28:37.329Z,13.90
2019-03-28T12:31:05.408Z,13.90
2019-03-28T12:33:33.400Z,14.00
2019-03-28T12:36:01.389Z,14.00
2019-03-28T12:38:29.244Z,14.00
2019-03-28T12:40:57.237Z,13.90
2019-03-28T12:43:25.216Z,13.90
2019-03-28T12:45:53.321Z,13.90
2019-03-28T12:48:21.383Z,13.90
2019-03-28T12:50:58.665Z,13.90
2019-03-28T12:53:19.385Z,13.90
2019-03-28T12:55:47.354Z,14.00
2019-03-28T12:58:15.341Z,14.00
2019-03-28T13:00:43.333Z,14.00
2019-03-28T13:03:11.294Z,14.00
2019-03-28T13:05:39.155Z,14.10
2019-03-28T13:08:07.242Z,14.20
2019-03-28T13:10:35.360Z,14.20
2019-03-28T13:13:03.953Z,14.30
2019-03-28T13:15:32.179Z,14.40
2019-03-28T13:18:00.145Z,14.30
2019-03-28T13:20:28.113Z,14.30
2019-03-28T13:22:56.109Z,14.30
2019-03-28T13:25:24.215Z,14.30
2019-03-28T13:27:52.295Z,14.40
2019-03-28T13:30:20.425Z,14.30
2019-03-28T13:32:48.548Z,14.30
2019-03-28T13:35:16.528Z,14.30
2019-03-28T13:37:44.505Z,14.30
2019-03-28T13:40:12.795Z,14.30
2019-03-28T13:42:40.760Z,14.20
2019-03-28T13:45:09.361Z,14.10
2019-03-28T13:47:37.444Z,14.10
2019-03-28T13:50:07.120Z,14.20
2019-03-28T13:52:35.211Z,14.20
2019-03-28T13:55:03.488Z,14.20
2019-03-28T13:57:31.457Z,14.30
2019-03-28T13:59:59.452Z,14.30
2019-03-28T14:02:27.513Z,14.30
2019-03-28T14:04:55.585Z,14.30
2019-03-28T14:07:23.602Z,14.40
2019-03-28T14:09:51.547Z,14.40
2019-03-28T14:12:19.581Z,14.40
2019-03-28T14:14:47.616Z,14.40
2019-03-28T14:17:15.630Z,14.50
2019-03-28T14:19:43.587Z,14.50
2019-03-28T14:22:11.672Z,14.70
2019-03-28T14:24:39.637Z,14.70
2019-03-28T14:27:07.613Z,14.70
2019-03-28T14:29:35.618Z,14.70
2019-03-28T14:32:03.589Z,14.70
2019-03-28T14:34:31.548Z,14.70
2019-03-28T14:36:59.561Z,14.60
2019-03-28T14:39:27.494Z,14.50
2019-03-28T14:41:55.480Z,14.50
2019-03-28T14:44:23.468Z,14.40
2019-03-28T14:46:51.421Z,14.40
2019-03-28T14:49:19.490Z,14.40
2019-03-28T14:51:47.841Z,14.40
2019-03-28T14:54:15.732Z,14.40
2019-03-28T14:56:43.799Z,14.30
2019-03-28T14:59:12.697Z,14.30
2019-03-28T15:01:40.662Z,14.30
2019-03-28T15:04:08.648Z,14.30
2019-03-28T15:06:36.662Z,14.20
2019-03-28T15:09:07.204Z,14.20
2019-03-28T15:11:35.178Z,14.20
2019-03-28T15:14:03.165Z,14.10
2019-03-28T15:16:31.126Z,14.10
2019-03-28T15:18:59.076Z,14.00
2019-03-28T15:21:27.077Z,14.00
2019-03-28T15:23:55.029Z,14.10
2019-03-28T15:26:23.000Z,14.00
2019-03-28T15:28:50.985Z,14.10
2019-03-28T15:31:19.108Z,14.10
2019-03-28T15:33:47.298Z,14.10
2019-03-28T15:36:15.294Z,14.10
2019-03-28T15:38:43.279Z,14.10
2019-03-28T15:41:11.253Z,14.00
2019-03-28T15:43:39.343Z,14.10
2019-03-28T15:46:07.305Z,14.00
2019-03-28T15:48:35.677Z,14.00
2019-03-28T15:51:03.897Z,13.90
2019-03-28T15:53:31.966Z,13.90
2019-03-28T15:55:59.950Z,13.90
2019-03-28T15:58:27.947Z,13.80
2019-03-28T16:00:55.899Z,13.80
2019-03-28T16:03:23.871Z,13.80
2019-03-28T16:05:58.095Z,13.70
2019-03-28T16:08:21.632Z,13.60
2019-03-28T16:10:49.627Z,13.50
2019-03-28T16:13:17.799Z,13.40
2019-03-28T16:15:45.782Z,13.30
2019-03-28T16:18:13.815Z,13.20
2019-03-28T16:20:41.941Z,13.10
2019-03-28T16:23:10.042Z,13.00
2019-03-28T16:25:38.026Z,13.00
2019-03-28T16:28:06.031Z,12.90
2019-03-28T16:30:35.959Z,12.90
2019-03-28T16:33:03.952Z,12.90
2019-03-28T16:35:32.029Z,12.80
2019-03-28T16:38:00.029Z,12.70
2019-03-28T16:40:27.993Z,12.70
2019-03-28T16:42:55.950Z,12.70
2019-03-28T16:45:23.956Z,12.80
2019-03-28T16:47:51.914Z,12.80
2019-03-28T16:50:19.920Z,12.80
2019-03-28T16:52:48.284Z,12.80
2019-03-28T16:55:25.874Z,12.80
2019-03-28T16:57:46.060Z,12.80
2019-03-28T17:00:14.868Z,12.80
2019-03-28T17:02:43.050Z,12.70
2019-03-28T17:05:11.008Z,12.70
2019-03-28T17:07:39.100Z,12.70
2019-03-28T17:10:07.940Z,12.60
2019-03-28T17:12:35.955Z,12.60
2019-03-28T17:15:05.310Z,12.60
2019-03-28T17:17:33.400Z,12.50
2019-03-28T17:20:01.386Z,12.50
2019-03-28T17:22:29.351Z,12.50
2019-03-28T17:24:57.431Z,12.50
2019-03-28T17:27:25.401Z,12.40
2019-03-28T17:29:53.398Z,12.40
2019-03-28T17:32:21.365Z,12.30
2019-03-28T17:34:49.348Z,12.30
2019-03-28T17:37:17.421Z,12.20
2019-03-28T17:39:45.389Z,12.20
2019-03-28T17:42:13.381Z,12.20
2019-03-28T17:44:41.367Z,12.20
2019-03-28T17:47:10.630Z,12.10
2019-03-28T17:49:39.014Z,12.10
2019-03-28T17:52:06.969Z,12.00
2019-03-28T17:54:34.940Z,12.00
2019-03-28T17:57:03.012Z,11.90
2019-03-28T17:59:31.113Z,11.90
2019-03-28T18:01:59.192Z,11.80
2019-03-28T18:04:27.184Z,11.80
2019-03-28T18:06:55.209Z,11.70
2019-03-28T18:09:23.401Z,11.70
2019-03-28T18:11:51.345Z,11.60
2019-03-28T18:14:19.304Z,11.60
2019-03-28T18:16:47.339Z,11.50
2019-03-28T18:19:15.352Z,11.50
2019-03-28T18:21:43.292Z,11.40
2019-03-28T18:24:11.276Z,11.40
2019-03-28T18:26:39.247Z,11.40
2019-03-28T18:29:07.316Z,11.40
2019-03-28T18:31:49.381Z,11.30
2019-03-28T18:34:05.140Z,11.20
2019-03-28T18:36:33.105Z,11.10
2019-03-28T18:39:01.087Z,11.00
2019-03-28T18:41:29.034Z,11.00
2019-03-28T18:43:56.999Z,10.90
2019-03-28T18:46:26.129Z,10.90
2019-03-28T18:48:54.352Z,10.80
2019-03-28T18:51:22.525Z,10.70
2019-03-28T18:53:50.532Z,10.60
2019-03-28T18:56:18.556Z,10.40
2019-03-28T18:58:46.525Z,10.40
2019-03-28T19:01:14.532Z,10.30
2019-03-28T19:03:42.511Z,10.20
2019-03-28T19:06:10.485Z,10.10
2019-03-28T19:08:38.498Z,10.00
2019-03-28T19:11:06.472Z,9.90
2019-03-28T19:13:34.469Z,9.80
2019-03-28T19:16:02.667Z,9.70
2019-03-28T19:18:30.672Z,9.70
2019-03-28T19:20:58.725Z,9.60
2019-03-28T19:23:26.812Z,9.60
2019-03-28T19:25:54.902Z,9.50
2019-03-28T19:28:28.760Z,9.50
2019-03-28T19:30:52.693Z,9.40
2019-03-28T19:33:20.662Z,9.40
2019-03-28T19:35:49.549Z,9.30
2019-03-28T19:38:18.009Z,9.30
2019-03-28T19:40:45.954Z,9.20
2019-03-28T19:43:20.331Z,9.20
2019-03-28T19:45:43.716Z,9.20
2019-03-28T19:48:11.798Z,9.10
2019-03-28T19:50:39.808Z,9.10
2019-03-28T19:53:07.813Z,9.00
2019-03-28T19:55:35.805Z,9.00
2019-03-28T19:58:05.003Z,8.90
2019-03-28T20:00:33.042Z,8.90
2019-03-28T20:03:02.376Z,8.80
2019-03-28T20:05:30.745Z,8.80
2019-03-28T20:07:58.730Z,8.70
2019-03-28T20:10:26.797Z,8.70
2019-03-28T20:12:54.813Z,8.70
2019-03-28T20:15:22.781Z,8.60
2019-03-28T20:17:50.860Z,8.60
2019-03-28T20:20:19.021Z,8.60
2019-03-28T20:22:46.992Z,8.50
2019-03-28T20:25:15.060Z,8.50
2019-03-28T20:27:43.128Z,8.50
2019-03-28T20:30:11.837Z,8.50
2019-03-28T20:32:39.760Z,8.50
2019-03-28T20:35:10.561Z,8.40
2019-03-28T20:37:37.930Z,8.40
2019-03-28T20:40:07.698Z,8.40
2019-03-28T20:42:35.692Z,8.30
2019-03-28T20:45:04.371Z,8.30
2019-03-28T20:47:32.362Z,8.30
2019-03-28T20:50:01.493Z,8.20
2019-03-28T20:52:30.016Z,8.20
2019-03-28T20:54:59.587Z,8.20
2019-03-28T20:57:27.868Z,8.20
2019-03-28T20:59:55.969Z,8.10
2019-03-28T21:02:24.196Z,8.10
2019-03-28T21:04:52.314Z,8.10
2019-03-28T21:07:20.640Z,8.10
2019-03-28T21:09:48.702Z,8.10
2019-03-28T21:12:17.593Z,8.00
2019-03-28T21:14:45.752Z,8.00
2019-03-28T21:17:13.741Z,8.00
2019-03-28T21:19:41.800Z,8.00
2019-03-28T21:22:09.812Z,7.90
2019-03-28T21:24:37.813Z,7.90
2019-03-28T21:27:07.489Z,7.90
2019-03-28T21:29:48.016Z,7.80
2019-03-28T21:32:05.352Z,7.80
2019-03-28T21:34:33.717Z,7.80
2019-03-28T21:37:01.712Z,7.70
2019-03-28T21:39:29.600Z,7.70
2019-03-28T21:41:57.683Z,7.60
2019-03-28T21:44:25.661Z,7.60
2019-03-28T21:46:53.632Z,7.60
2019-03-28T21:49:21.589Z,7.60
2019-03-28T21:51:49.575Z,7.60
2019-03-28T21:54:17.596Z,7.60
2019-03-28T21:56:45.562Z,7.50
2019-03-28T21:59:13.644Z,7.50
2019-03-28T22:01:41.606Z,7.50
2019-03-28T22:04:09.575Z,7.50
2019-03-28T22:06:42.744Z,7.50
2019-03-28T22:09:07.336Z,7.50
2019-03-28T22:11:35.396Z,7.50
2019-03-28T22:14:03.487Z,7.40
2019-03-28T22:16:31.450Z,7.40
2019-03-28T22:18:59.897Z,7.30
2019-03-28T22:21:27.923Z,7.30
2019-03-28T22:23:55.806Z,7.30
2019-03-28T22:26:23.785Z,7.30
2019-03-28T22:28:52.572Z,7.20
2019-03-28T22:31:20.498Z,7.20
2019-03-28T22:33:48.696Z,7.20
2019-03-28T22:36:17.921Z,7.20
2019-03-28T22:38:46.855Z,7.20
2019-03-28T22:41:14.999Z,7.20
2019-03-28T22:43:43.034Z,7.20
2019-03-28T22:46:10.999Z,7.10
2019-03-28T22:48:39.333Z,7.10
2019-03-28T22:51:07.869Z,7.10
2019-03-28T22:53:35.847Z,7.10
2019-03-28T22:56:03.834Z,7.10
2019-03-28T22:58:31.898Z,7.00
2019-03-28T23:01:00.060Z,7.00
2019-03-28T23:03:28.023Z,7.00
2019-03-28T23:05:56.811Z,7.00
2019-03-28T23:08:24.864Z,7.00
2019-03-28T23:10:52.843Z,6.90
2019-03-28T23:13:20.836Z,6.90
2019-03-28T23:15:48.813Z,6.80
2019-03-28T23:18:16.908Z,6.80
2019-03-28T23:20:44.884Z,6.80
2019-03-28T23:23:12.949Z,6.70
2019-03-28T23:25:40.944Z,6.70
2019-03-28T23:28:08.908Z,6.80
2019-03-28T23:30:36.875Z,6.70
2019-03-28T23:33:05.082Z,6.70
2019-03-28T23:35:33.274Z,6.70
2019-03-28T23:38:01.264Z,6.70
2019-03-28T23:40:29.979Z,6.70
2019-03-28T23:42:58.304Z,6.70
2019-03-28T23:45:26.261Z,6.60
2019-03-28T23:47:54.250Z,6.60
2019-03-28T23:50:22.314Z,6.60
2019-03-28T23:52:50.380Z,6.60
2019-03-28T23:55:18.961Z,6.60
2019-03-28T23:57:47.128Z,6.50
